Time;durP1;ratioP1;P1;durP2;ratioP2;P2;SDS_P1;SDS_P2;PMS_P1;PMS_P2;Temp;Humidity;BMP_temperature;BMP_pressure;BME280_temperature;BME280_humidity;BME280_pressure;Samples;Min_cycle;Max_cycle;Signal;HPM_P1;HPM_P2
2022/11/14 00:00:27;;;;;;;39.70;19.45;;;6.70;85.50;;;4.88;100.00;96069.91;4919169;28;20319;-65
2022/11/14 00:02:54;;;;;;;43.22;21.52;;;6.70;85.50;;;4.86;100.00;96061.44;4886058;28;20499;-66
2022/11/14 00:05:20;;;;;;;36.60;20.25;;;6.70;85.60;;;4.86;100.00;96071.03;4916470;28;20220;-66
2022/11/14 00:07:46;;;;;;;38.00;19.88;;;6.70;85.60;;;4.86;100.00;96081.47;4901684;28;20283;-66
2022/11/14 00:10:16;;;;;;;29.23;18.88;;;6.60;85.50;;;4.85;100.00;96070.22;4902181;28;20423;-67
2022/11/14 00:12:42;;;;;;;114.90;19.05;;;6.70;85.70;;;4.87;100.00;96075.28;4898985;28;20482;-66
2022/11/14 00:15:09;;;;;;;32.45;19.70;;;6.70;85.40;;;4.87;100.00;96068.28;4914179;28;20703;-66
2022/11/14 00:17:35;;;;;;;39.83;18.92;;;6.70;85.50;;;4.89;100.00;96065.53;4921928;28;20510;-65
2022/11/14 00:20:01;;;;;;;65.07;19.02;;;6.70;85.50;;;4.90;100.00;96065.38;4888697;28;20429;-66
2022/11/14 00:22:27;;;;;;;144.38;20.08;;;6.70;85.30;;;4.88;100.00;96067.31;4903951;28;20417;-66
2022/11/14 00:24:53;;;;;;;110.05;19.83;;;6.60;85.50;;;4.85;100.00;96061.59;4887422;28;20347;-66
2022/11/14 00:27:20;;;;;;;102.45;19.60;;;6.60;86.00;;;4.82;100.00;96065.31;4904412;28;20405;-67
2022/11/14 00:29:46;;;;;;;31.63;19.23;;;6.50;86.20;;;4.80;100.00;96062.06;4877316;28;20352;-66
2022/11/14 00:32:12;;;;;;;82.82;18.40;;;6.50;86.10;;;4.76;100.00;96058.13;4894116;28;20587;-67
2022/11/14 00:34:38;;;;;;;64.93;18.33;;;6.50;86.20;;;4.77;100.00;96057.16;4887455;28;20362;-67
2022/11/14 00:37:04;;;;;;;51.22;19.48;;;6.50;86.20;;;4.73;100.00;96041.97;4872568;28;20331;-67
2022/11/14 00:39:30;;;;;;;28.95;18.55;;;6.40;86.50;;;4.74;100.00;96041.00;4872334;28;20295;-66
2022/11/14 00:41:56;;;;;;;83.35;19.00;;;6.50;86.40;;;4.74;100.00;96044.41;4879418;28;20275;-67
2022/11/14 00:44:22;;;;;;;29.55;19.70;;;6.50;85.90;;;4.74;100.00;96041.81;4884102;28;20378;-66
2022/11/14 00:46:48;;;;;;;32.95;19.58;;;6.50;86.30;;;4.76;100.00;96034.69;4875203;28;20368;-68
2022/11/14 00:49:14;;;;;;;39.17;18.65;;;6.60;86.10;;;4.78;100.00;96032.75;4889242;28;20823;-66
2022/11/14 00:51:40;;;;;;;25.10;17.52;;;6.60;85.90;;;4.80;100.00;96036.00;4923899;28;20345;-66
2022/11/14 00:54:06;;;;;;;24.70;17.45;;;6.70;85.80;;;4.82;100.00;96039.28;4922949;28;20352;-66
2022/11/14 00:56:32;;;;;;;24.92;16.55;;;6.70;85.60;;;4.83;100.00;96046.09;4906378;28;20638;-67
2022/11/14 00:58:58;;;;;;;34.75;18.90;;;6.70;85.40;;;4.85;100.00;96041.56;4906906;28;20567;-67
2022/11/14 01:01:24;;;;;;;35.92;17.10;;;6.70;85.30;;;4.87;100.00;96042.22;4923147;28;20731;-66
2022/11/14 01:03:51;;;;;;;25.65;17.98;;;6.70;85.20;;;4.87;100.00;96037.00;4923173;28;20319;-67
2022/11/14 01:06:17;;;;;;;28.25;17.10;;;6.70;85.30;;;4.88;100.00;96043.84;4939844;28;20412;-66
2022/11/14 01:08:44;;;;;;;48.55;16.95;;;6.80;85.20;;;4.90;100.00;96054.94;4926923;28;20428;-67
2022/11/14 01:11:12;;;;;;;24.25;17.38;;;6.70;85.20;;;4.89;100.00;96058.50;4923352;28;20456;-66
2022/11/14 01:13:38;;;;;;;29.83;16.27;;;6.80;85.20;;;4.89;100.00;96066.34;4903658;28;20541;-66
2022/11/14 01:16:05;;;;;;;21.35;15.88;;;6.70;85.20;;;4.88;100.00;96063.88;4908761;28;20362;-66
2022/11/14 01:18:31;;;;;;;36.65;15.82;;;6.80;85.10;;;4.87;100.00;96063.06;4902015;28;20489;-66
2022/11/14 01:20:57;;;;;;;22.75;15.40;;;6.70;84.90;;;4.85;100.00;96061.59;4905618;28;20484;-66
2022/11/14 01:23:23;;;;;;;22.40;15.57;;;6.70;85.00;;;4.86;100.00;96051.00;4908922;28;20358;-66
2022/11/14 01:25:49;;;;;;;28.63;15.45;;;6.70;84.90;;;4.86;100.00;96056.22;4907332;28;20380;-66
2022/11/14 01:28:18;;;;;;;25.45;14.93;;;6.80;84.80;;;4.85;100.00;96051.97;4907033;28;20302;-66
2022/11/14 01:30:44;;;;;;;21.08;15.05;;;6.70;85.00;;;4.88;100.00;96053.47;4905568;28;20278;-67
2022/11/14 01:33:10;;;;;;;35.22;15.88;;;6.70;84.90;;;4.86;100.00;96051.00;4905977;28;20218;-66
2022/11/14 01:35:37;;;;;;;70.40;15.65;;;6.60;84.90;;;4.86;100.00;96061.44;4904646;28;20580;-67
2022/11/14 01:38:03;;;;;;;53.70;16.30;;;6.70;85.00;;;4.85;100.00;96059.81;4905025;28;20353;-66
2022/11/14 01:40:29;;;;;;;62.33;16.58;;;6.60;85.10;;;4.82;100.00;96052.28;4908983;28;20383;-66
2022/11/14 01:43:17;;;;;;;33.40;17.13;;;6.50;85.40;;;4.78;100.00;96056.19;4888592;28;20580;-67
2022/11/14 01:46:03;;;;;;;43.45;17.73;;;6.40;85.80;;;4.72;100.00;96051.56;4939265;28;20541;-65
2022/11/14 01:48:57;;;;;;;57.25;17.75;;;6.40;86.20;;;4.66;100.00;96049.59;4922300;28;20440;-69
2022/11/14 01:51:31;;;;;;;105.45;18.27;;;6.30;86.40;;;4.61;100.00;96047.44;4906371;28;20539;-65
2022/11/14 01:54:01;;;;;;;32.65;18.80;;;6.20;86.60;;;4.57;100.00;96037.50;4908658;28;20705;-68
2022/11/14 01:56:33;;;;;;;53.83;18.00;;;6.20;87.20;;;4.55;100.00;96031.63;4922338;28;20593;-67
2022/11/14 01:59:25;;;;;;;84.93;18.13;;;6.20;86.90;;;4.51;100.00;96038.06;4961233;28;20294;-67
2022/11/14 02:01:52;;;;;;;44.17;18.02;;;6.10;87.10;;;4.48;100.00;96031.41;4928744;28;20524;-67
2022/11/14 02:04:31;;;;;;;60.75;19.13;;;6.10;87.40;;;4.49;100.00;96021.78;4927359;28;20554;-67
2022/11/14 02:07:00;;;;;;;27.88;18.58;;;6.20;87.30;;;4.48;100.00;96009.75;4963741;28;20052;-67
2022/11/14 02:09:28;;;;;;;53.28;17.35;;;6.20;87.40;;;4.46;100.00;96014.28;4928503;28;20627;-67
2022/11/14 02:12:24;;;;;;;71.55;17.65;;;6.10;86.90;;;4.39;100.00;96005.47;4930539;28;20395;-67
2022/11/14 02:14:53;;;;;;;35.90;17.75;;;6.10;86.90;;;4.42;100.00;96005.97;4928855;28;20488;-67
2022/11/14 02:17:20;;;;;;;72.68;16.63;;;6.10;86.90;;;4.42;100.00;96015.56;4912070;28;20392;-68
2022/11/14 02:19:53;;;;;;;55.65;18.08;;;6.10;86.70;;;4.40;100.00;96017.50;4910853;28;20350;-68
2022/11/14 02:22:19;;;;;;;35.90;17.85;;;6.10;87.10;;;4.40;100.00;96015.72;4911045;28;20710;-67
2022/11/14 02:24:45;;;;;;;60.20;17.30;;;6.10;87.20;;;4.41;100.00;96017.34;4907575;28;20386;-67
2022/11/14 02:27:12;;;;;;;25.25;16.90;;;6.20;87.00;;;4.42;100.00;96010.38;4907083;28;20496;-67
2022/11/14 02:29:38;;;;;;;98.93;17.10;;;6.20;86.80;;;4.42;100.00;96010.38;4906812;28;20369;-67
2022/11/14 02:32:04;;;;;;;31.58;17.60;;;6.10;86.70;;;4.40;100.00;96007.09;4906256;28;20435;-67
2022/11/14 02:34:31;;;;;;;48.47;16.88;;;6.10;87.10;;;4.41;100.00;96008.72;4907638;28;20503;-69
2022/11/14 02:36:57;;;;;;;46.55;16.95;;;6.20;86.90;;;4.39;100.00;96010.66;4909189;28;20430;-67
2022/11/14 02:39:23;;;;;;;73.88;20.13;;;6.10;87.20;;;4.37;100.00;96010.00;4910390;28;20350;-67
2022/11/14 02:41:50;;;;;;;62.78;18.65;;;6.10;87.30;;;4.37;100.00;96002.19;4910362;28;20331;-66
2022/11/14 02:44:16;;;;;;;32.63;19.15;;;6.10;87.20;;;4.38;100.00;96003.84;4930894;28;20365;-66
2022/11/14 02:46:43;;;;;;;116.85;17.80;;;6.10;87.40;;;4.40;100.00;95996.69;4930313;28;20434;-67
2022/11/14 02:49:09;;;;;;;45.53;16.80;;;6.20;87.10;;;4.43;100.00;96012.00;4913505;28;20842;-65
2022/11/14 02:51:35;;;;;;;51.25;16.10;;;6.20;87.00;;;4.44;100.00;96018.84;4911583;28;20409;-66
2022/11/14 02:54:01;;;;;;;22.65;15.73;;;6.20;86.70;;;4.46;100.00;96022.09;4906584;28;20398;-67
2022/11/14 02:56:27;;;;;;;39.08;16.13;;;6.30;87.00;;;4.49;100.00;96000.97;4909644;28;20871;-66
2022/11/14 02:58:53;;;;;;;33.63;16.70;;;6.40;86.80;;;4.51;100.00;96005.03;4923783;28;20362;-68
2022/11/14 03:01:19;;;;;;;25.52;17.77;;;6.40;86.60;;;4.53;100.00;96008.34;4894029;28;20210;-67
2022/11/14 03:03:45;;;;;;;26.65;18.05;;;6.40;86.40;;;4.56;100.00;96007.22;4925264;28;20336;-67
2022/11/14 03:06:11;;;;;;;25.58;16.50;;;6.50;86.40;;;4.59;100.00;96007.72;4896829;28;20366;-67
2022/11/14 03:08:38;;;;;;;59.90;16.95;;;6.50;86.20;;;4.59;100.00;96002.50;4944057;28;20210;-66
2022/11/14 03:11:05;;;;;;;61.58;15.80;;;6.50;85.90;;;4.60;100.00;95987.69;4944212;28;20435;-67
2022/11/14 03:13:31;;;;;;;22.52;15.95;;;6.40;85.70;;;4.60;100.00;95985.09;4910065;28;20349;-66
2022/11/14 03:16:07;;;;;;;83.32;16.73;;;6.50;85.90;;;4.61;100.00;95978.91;4924319;28;20476;-67
2022/11/14 03:18:33;;;;;;;41.40;14.55;;;6.40;85.70;;;4.56;100.00;95981.97;4893694;28;20436;-66
2022/11/14 03:21:21;;;;;;;26.00;15.95;;;6.30;86.30;;;4.53;100.00;95981.47;4907127;28;20521;-66
2022/11/14 03:23:47;;;;;;;26.75;15.55;;;6.40;86.30;;;4.54;100.00;95989.13;4945446;28;20350;-66
2022/11/14 03:26:13;;;;;;;20.42;15.32;;;6.50;86.20;;;4.57;100.00;95988.81;4929763;28;20850;-66
2022/11/14 03:28:39;;;;;;;40.95;14.88;;;6.50;86.10;;;4.56;100.00;95981.97;4902489;28;20579;-66
2022/11/14 03:31:06;;;;;;;29.40;15.02;;;6.50;86.10;;;4.58;100.00;95974.00;4910201;28;20187;-68
2022/11/14 03:33:32;;;;;;;27.35;15.90;;;6.50;85.90;;;4.60;100.00;95979.88;4909011;28;20702;-66
2022/11/14 03:35:58;;;;;;;62.72;15.88;;;6.50;85.90;;;4.57;100.00;95975.78;4951011;28;20466;-66
2022/11/14 03:38:24;;;;;;;74.57;16.05;;;6.50;85.90;;;4.54;100.00;95983.91;4966581;28;20036;-65
2022/11/14 03:40:50;;;;;;;50.28;17.50;;;6.30;86.40;;;4.49;100.00;95980.94;4998504;28;20511;-68
2022/11/14 03:43:20;;;;;;;89.25;15.27;;;6.40;86.40;;;4.54;100.00;95993.53;4965398;28;20037;-68
2022/11/14 03:45:46;;;;;;;51.58;15.32;;;6.40;86.20;;;4.53;100.00;95997.09;4950882;28;20044;-67
2022/11/14 03:48:12;;;;;;;172.68;17.85;;;6.40;85.90;;;4.51;100.00;95999.00;4987234;28;20044;-67
2022/11/14 03:50:38;;;;;;;71.35;15.13;;;6.20;85.80;;;4.47;100.00;95997.69;4985121;28;20488;-63
2022/11/14 03:53:04;;;;;;;77.95;14.07;;;6.30;86.10;;;4.45;100.00;95994.44;4983698;28;20040;-68
2022/11/14 03:55:30;;;;;;;21.48;14.38;;;6.30;85.90;;;4.46;100.00;95990.84;4959196;28;20432;-68
2022/11/14 03:57:56;;;;;;;22.38;14.10;;;6.30;86.10;;;4.46;100.00;95996.06;4969646;28;20424;-66
2022/11/14 04:00:22;;;;;;;25.15;13.38;;;6.40;86.00;;;4.44;100.00;95987.59;4985196;28;20323;-66
2022/11/14 04:02:48;;;;;;;47.85;13.20;;;6.40;85.90;;;4.47;100.00;95987.28;5000061;28;20179;-66
2022/11/14 04:05:14;;;;;;;25.10;13.35;;;6.40;85.60;;;4.49;100.00;95987.94;5013371;28;20489;-67
2022/11/14 04:07:40;;;;;;;50.50;12.85;;;6.40;85.80;;;4.47;100.00;95992.47;5003508;28;20032;-66
2022/11/14 04:10:06;;;;;;;17.10;12.63;;;6.30;85.60;;;4.47;100.00;95988.09;4985720;28;20067;-67
2022/11/14 04:12:32;;;;;;;22.75;13.35;;;6.40;85.70;;;4.49;100.00;96006.16;5005526;28;20044;-67
2022/11/14 04:14:58;;;;;;;22.52;13.25;;;6.40;85.70;;;4.47;100.00;95995.91;4981887;28;20199;-65
2022/11/14 04:17:24;;;;;;;103.75;14.93;;;6.40;85.50;;;4.48;100.00;96004.53;4965402;28;20048;-65
2022/11/14 04:19:50;;;;;;;18.85;12.85;;;6.40;85.30;;;4.48;100.00;96014.94;4969746;28;20041;-66
2022/11/14 04:22:15;;;;;;;24.42;13.20;;;6.40;85.60;;;4.52;100.00;96016.28;4984536;28;20194;-65
2022/11/14 04:24:41;;;;;;;19.52;14.02;;;6.50;85.60;;;4.52;100.00;96016.28;4978114;28;20200;-66
2022/11/14 04:27:07;;;;;;;25.42;13.45;;;6.40;85.40;;;4.52;100.00;96016.28;4977237;28;20305;-65
2022/11/14 04:29:33;;;;;;;73.10;14.13;;;6.50;85.40;;;4.53;100.00;96023.97;4967921;28;20278;-66
2022/11/14 04:31:59;;;;;;;35.35;13.70;;;6.50;85.40;;;4.51;100.00;96031.09;4983831;28;20443;-66
2022/11/14 04:34:25;;;;;;;21.58;13.48;;;6.40;85.40;;;4.49;100.00;96001.78;4982178;28;20045;-65
2022/11/14 04:36:51;;;;;;;58.55;14.43;;;6.40;85.60;;;4.48;100.00;95984.50;4981235;28;20327;-65
2022/11/14 04:39:17;;;;;;;29.80;13.52;;;6.40;85.30;;;4.50;100.00;95986.97;4983481;28;20033;-65
2022/11/14 04:41:43;;;;;;;57.40;12.50;;;6.40;85.50;;;4.46;100.00;95996.88;4979626;28;20060;-68
2022/11/14 04:44:09;;;;;;;81.88;13.13;;;6.30;85.60;;;4.45;100.00;96010.06;4962969;28;20432;-66
2022/11/14 04:46:35;;;;;;;78.45;12.82;;;6.20;85.40;;;4.41;100.00;96000.91;4961629;28;20022;-65
2022/11/14 04:49:01;;;;;;;29.40;13.73;;;6.10;85.70;;;4.39;100.00;95989.84;4977232;28;20318;-66
2022/11/14 04:51:27;;;;;;;39.15;14.15;;;6.20;85.90;;;4.37;100.00;95976.97;4978024;28;20126;-65
2022/11/14 04:53:52;;;;;;;21.70;12.20;;;6.20;85.80;;;4.36;100.00;95964.13;4973520;28;20034;-68
2022/11/14 04:56:21;;;;;;;50.10;25.38;;;6.20;85.80;;;4.29;100.00;95956.06;5044356;28;20145;-69
2022/11/14 04:58:48;;;;;;;59.83;32.83;;;6.20;85.60;;;4.33;100.00;95969.63;5039770;28;20032;-66
2022/11/14 05:01:15;;;;;;;30.90;19.40;;;6.20;85.70;;;4.35;100.00;95959.88;5060005;28;20021;-67
2022/11/14 05:03:41;;;;;;;33.47;12.02;;;6.30;85.60;;;4.34;100.00;95950.44;5027329;28;20078;-66
2022/11/14 05:06:07;;;;;;;19.48;13.68;;;6.20;85.30;;;4.31;100.00;95961.97;5036310;28;20124;-66
2022/11/14 05:08:33;;;;;;;23.95;11.02;;;6.20;85.40;;;4.29;100.00;95961.28;5008329;28;20032;-68
2022/11/14 05:10:59;;;;;;;37.42;11.77;;;6.10;85.20;;;4.27;100.00;95977.06;5026307;28;20074;-66
2022/11/14 05:13:24;;;;;;;15.52;11.27;;;6.10;85.30;;;4.26;100.00;95970.22;5023435;28;20033;-68
2022/11/14 05:15:50;;;;;;;24.00;11.90;;;6.20;85.40;;;4.29;100.00;95963.88;5000259;28;20380;-68
2022/11/14 05:18:16;;;;;;;22.88;12.82;;;6.20;85.30;;;4.32;100.00;95968.00;5024075;28;20100;-67
2022/11/14 05:20:42;;;;;;;19.77;11.98;;;6.20;85.50;;;4.29;100.00;95969.91;5025203;28;20080;-66
2022/11/14 05:23:22;;;;;;;39.17;12.48;;;6.20;85.60;;;4.30;100.00;95976.78;5009778;28;20496;-67
2022/11/14 05:26:05;;;;;;;29.17;11.73;;;6.20;85.40;;;4.27;100.00;95978.84;5040557;28;20037;-67
2022/11/14 05:28:30;;;;;;;22.50;11.57;;;6.10;85.10;;;4.24;100.00;95982.56;5005696;28;20364;-66
2022/11/14 05:31:04;;;;;;;33.30;11.73;;;6.20;85.10;;;4.26;100.00;95990.22;5005332;28;20455;-66
2022/11/14 05:33:30;;;;;;;19.83;11.95;;;6.20;85.00;;;4.23;100.00;95990.53;5009533;28;20032;-66
2022/11/14 05:36:03;;;;;;;23.27;12.93;;;6.10;85.30;;;4.23;100.00;95978.34;5009752;28;20036;-66
2022/11/14 05:38:29;;;;;;;32.80;12.50;;;6.10;85.60;;;4.22;100.00;95974.09;5010316;28;20088;-68
2022/11/14 05:40:55;;;;;;;17.35;11.90;;;6.10;85.60;;;4.22;100.00;95974.09;5005074;28;20575;-66
2022/11/14 05:43:20;;;;;;;23.20;11.75;;;6.10;85.70;;;4.26;100.00;95975.44;4991536;28;20056;-67
2022/11/14 05:45:46;;;;;;;36.13;12.05;;;6.10;85.50;;;4.26;100.00;95974.59;5018734;28;20041;-67
2022/11/14 05:48:12;;;;;;;30.00;12.82;;;6.10;85.30;;;4.26;100.00;95985.84;5021384;28;20554;-66
2022/11/14 05:50:38;;;;;;;39.67;11.82;;;6.10;85.50;;;4.25;100.00;95978.19;5005339;28;20033;-66
2022/11/14 05:53:03;;;;;;;17.13;11.00;;;6.10;85.10;;;4.23;100.00;95995.75;5022491;28;20191;-66
2022/11/14 05:55:29;;;;;;;29.20;11.02;;;6.10;84.90;;;4.18;100.00;95998.81;5038097;28;20064;-66
2022/11/14 05:57:58;;;;;;;14.65;10.80;;;6.10;84.90;;;4.13;100.00;96006.25;4999902;28;20118;-67
2022/11/14 06:00:25;;;;;;;14.23;10.90;;;6.00;85.10;;;4.16;100.00;96018.16;5005756;28;20048;-68
2022/11/14 06:02:54;;;;;;;20.35;11.52;;;6.10;85.20;;;4.16;100.00;96026.78;5005889;28;21482;-66
2022/11/14 06:05:21;;;;;;;23.88;10.82;;;6.10;85.10;;;4.15;100.00;96027.75;5022794;28;20143;-66
2022/11/14 06:07:47;;;;;;;35.78;11.30;;;6.00;85.10;;;4.13;100.00;96027.09;5021422;28;20041;-67
2022/11/14 06:10:12;;;;;;;26.27;11.20;;;5.90;85.50;;;4.07;100.00;96025.06;4989600;28;20089;-68
2022/11/14 06:12:39;;;;;;;17.25;11.30;;;5.80;85.40;;;4.04;100.00;96032.34;5005168;28;20034;-67
2022/11/14 06:15:05;;;;;;;66.68;10.95;;;5.80;85.70;;;4.01;100.00;96036.09;5024760;28;20033;-67
2022/11/14 06:17:31;;;;;;;22.10;10.63;;;5.70;85.30;;;4.02;100.00;96044.72;5041536;28;20040;-67
2022/11/14 06:19:57;;;;;;;20.30;9.73;;;5.80;85.50;;;4.00;100.00;96037.06;5025488;28;20051;-68
2022/11/14 06:22:22;;;;;;;61.97;10.13;;;5.80;85.40;;;4.01;100.00;96038.69;5042056;28;20123;-67
2022/11/14 06:24:48;;;;;;;25.15;10.30;;;5.90;85.10;;;4.00;100.00;96042.25;5037391;28;20120;-67
2022/11/14 06:27:14;;;;;;;17.13;11.20;;;5.90;85.40;;;3.98;100.00;96039.00;5036135;28;20051;-67
2022/11/14 06:29:40;;;;;;;29.75;19.20;;;5.90;85.20;;;3.99;100.00;96045.81;4988886;28;20132;-67
2022/11/14 06:32:05;;;;;;;23.05;17.33;;;5.90;85.20;;;4.03;100.00;96039.34;5005769;28;20137;-67
2022/11/14 06:34:31;;;;;;;34.65;16.23;;;6.00;85.50;;;4.04;100.00;96042.78;5015225;28;20519;-67
2022/11/14 06:36:57;;;;;;;41.83;26.58;;;6.00;85.10;;;4.05;100.00;96040.00;5000578;28;20037;-68
2022/11/14 06:39:23;;;;;;;21.90;15.10;;;6.00;85.20;;;4.03;100.00;96047.16;5024717;28;20049;-68
2022/11/14 06:41:49;;;;;;;18.05;8.85;;;6.00;84.70;;;4.02;100.00;96061.13;5008841;28;20043;-67
2022/11/14 06:44:14;;;;;;;47.10;8.55;;;6.00;84.40;;;4.02;100.00;96058.53;5024582;28;20037;-68
2022/11/14 06:46:40;;;;;;;20.38;9.38;;;6.00;84.10;;;3.98;100.00;96054.59;5021469;28;20087;-69
2022/11/14 06:49:06;;;;;;;35.35;9.80;;;5.90;84.20;;;3.97;100.00;96047.75;5021120;28;20033;-68
2022/11/14 06:51:32;;;;;;;14.68;11.65;;;5.90;84.40;;;4.02;100.00;96050.72;5022828;28;20529;-67
2022/11/14 06:53:57;;;;;;;17.42;10.35;;;6.00;85.00;;;4.05;100.00;96050.44;5016091;28;20812;-67
2022/11/14 06:56:23;;;;;;;13.35;9.80;;;6.00;84.90;;;4.08;100.00;96052.75;5053144;28;20029;-68
2022/11/14 06:58:49;;;;;;;25.55;10.18;;;6.10;85.00;;;4.10;100.00;96047.41;5023532;28;20033;-68
2022/11/14 07:01:16;;;;;;;15.07;10.18;;;6.10;84.30;;;4.12;100.00;96059.28;5009186;28;20053;-67
2022/11/14 07:03:42;;;;;;;48.03;31.88;;;6.10;84.80;;;4.17;100.00;96059.66;5014159;28;20065;-67
2022/11/14 07:06:10;;;;;;;24.60;16.35;;;6.10;85.00;;;4.19;100.00;96067.31;5003956;28;20115;-67
2022/11/14 07:08:36;;;;;;;37.53;25.05;;;6.10;84.80;;;4.19;100.00;96051.69;5011086;28;20083;-68
2022/11/14 07:11:02;;;;;;;22.60;13.05;;;6.20;84.80;;;4.22;100.00;96047.00;5028558;28;20067;-66
2022/11/14 07:13:28;;;;;;;19.67;11.23;;;6.20;84.50;;;4.25;100.00;96046.69;5025586;28;20118;-67
2022/11/14 07:15:54;;;;;;;15.88;10.10;;;6.30;84.30;;;4.28;100.00;96051.59;5006301;28;20033;-66
2022/11/14 07:18:20;;;;;;;48.13;10.45;;;6.40;84.10;;;4.30;100.00;96044.47;5013332;28;20037;-66
2022/11/14 07:20:46;;;;;;;18.23;10.85;;;6.40;83.50;;;4.34;100.00;96038.97;5028990;28;20040;-66
2022/11/14 07:23:12;;;;;;;25.88;11.10;;;6.40;83.80;;;4.38;100.00;96037.69;5041414;28;20132;-68
2022/11/14 07:25:38;;;;;;;20.55;10.85;;;6.50;83.80;;;4.42;100.00;96031.19;5037400;28;20060;-67
2022/11/14 07:28:04;;;;;;;25.02;10.40;;;6.50;83.70;;;4.44;100.00;96029.25;5008155;28;20447;-67
2022/11/14 07:30:30;;;;;;;17.52;10.18;;;6.60;83.40;;;4.48;100.00;96022.75;5008655;28;20044;-66
2022/11/14 07:32:56;;;;;;;16.67;10.85;;;6.60;83.40;;;4.55;100.00;96013.38;5010695;28;20025;-67
2022/11/14 07:35:22;;;;;;;19.05;9.25;;;6.70;83.10;;;4.58;100.00;96010.47;5026399;28;20118;-66
2022/11/14 07:37:48;;;;;;;21.20;9.70;;;6.70;82.70;;;4.61;100.00;96015.38;5007475;28;20468;-66
2022/11/14 07:40:15;;;;;;;18.58;10.07;;;6.70;82.50;;;4.63;100.00;96026.44;5008580;28;20033;-66
2022/11/14 07:42:41;;;;;;;14.18;9.30;;;6.70;82.70;;;4.66;100.00;96030.53;4975015;28;20041;-69
2022/11/14 07:45:08;;;;;;;20.92;8.93;;;6.70;82.10;;;4.61;100.00;96031.81;5019589;28;20060;-67
2022/11/14 07:47:33;;;;;;;21.13;8.32;;;6.60;81.30;;;4.59;100.00;96030.34;5024133;28;20072;-67
2022/11/14 07:49:59;;;;;;;12.40;7.90;;;6.60;81.40;;;4.56;100.00;96035.84;5023091;28;20037;-67
2022/11/14 07:52:25;;;;;;;13.90;10.15;;;6.60;81.40;;;4.54;100.00;96040.41;5040370;28;20540;-69
2022/11/14 07:54:51;;;;;;;31.83;15.95;;;6.60;81.50;;;4.59;100.00;96038.16;5041335;28;20041;-67
2022/11/14 07:57:17;;;;;;;16.23;10.63;;;6.60;82.40;;;4.58;100.00;96026.09;5026823;28;20174;-67
2022/11/14 07:59:42;;;;;;;14.15;8.25;;;6.60;81.90;;;4.62;100.00;96030.03;5024878;28;20540;-68
2022/11/14 08:02:13;;;;;;;13.27;8.77;;;6.70;81.40;;;4.63;100.00;96034.25;5032258;28;20057;-68
2022/11/14 08:04:40;;;;;;;19.63;9.13;;;6.70;81.10;;;4.61;100.00;96036.22;5020036;28;20037;-69
2022/11/14 08:07:06;;;;;;;35.22;22.23;;;6.70;80.80;;;4.61;100.00;96026.59;4995055;28;20036;-68
2022/11/14 08:09:31;;;;;;;21.27;15.10;;;6.80;80.90;;;4.63;100.00;96026.44;5010462;28;20488;-67
2022/11/14 08:11:57;;;;;;;14.60;10.13;;;6.90;80.70;;;4.71;100.00;96026.47;5023532;28;20033;-69
2022/11/14 08:14:23;;;;;;;53.20;9.73;;;7.10;80.30;;;4.80;100.00;96020.38;5017629;28;20119;-68
2022/11/14 08:16:49;;;;;;;19.65;13.00;;;7.10;79.40;;;4.86;100.00;96009.31;5010299;28;20103;-68
2022/11/14 08:19:15;;;;;;;12.77;8.38;;;7.20;80.20;;;4.88;100.00;96004.75;5006287;28;20200;-68
2022/11/14 08:21:41;;;;;;;18.05;8.35;;;7.10;79.70;;;4.91;100.00;96007.06;5036618;28;20037;-68
2022/11/14 08:24:07;;;;;;;11.98;8.23;;;7.20;79.70;;;4.97;100.00;96020.44;5027847;28;20037;-67
2022/11/14 08:26:33;;;;;;;11.50;8.52;;;7.20;79.60;;;5.01;100.00;96013.94;5043799;28;20043;-68
2022/11/14 08:28:59;;;;;;;9.50;7.80;;;7.30;79.70;;;5.05;100.00;95997.03;5009397;28;20090;-68
2022/11/14 08:31:25;;;;;;;12.70;8.45;;;7.20;79.10;;;5.08;100.00;96001.91;5027346;28;20112;-68
2022/11/14 08:33:51;;;;;;;12.48;7.93;;;7.20;79.30;;;5.12;100.00;96000.63;5011003;28;20040;-67
2022/11/14 08:36:17;;;;;;;17.13;8.45;;;7.20;79.30;;;5.14;100.00;96009.09;5027521;28;20037;-70
2022/11/14 08:38:43;;;;;;;12.68;7.55;;;7.20;79.10;;;5.12;100.00;96001.44;5038279;28;20060;-68
2022/11/14 08:41:08;;;;;;;13.88;8.52;;;7.20;79.20;;;5.11;100.00;96025.06;5006772;28;20393;-69
2022/11/14 08:43:34;;;;;;;14.38;8.65;;;7.20;79.20;;;5.12;100.00;96030.13;5027055;28;20041;-69
2022/11/14 08:46:01;;;;;;;10.90;8.43;;;7.20;79.20;;;5.14;100.00;96019.53;5026769;28;20411;-69
2022/11/14 08:48:28;;;;;;;27.63;15.32;;;7.30;79.10;;;5.17;100.00;96000.97;5020527;28;20047;-68
2022/11/14 08:50:54;;;;;;;27.98;20.63;;;7.40;78.70;;;5.26;100.00;95989.59;5022316;28;20046;-70
2022/11/14 08:53:20;;;;;;;27.35;19.85;;;7.80;77.60;;;5.38;100.00;95990.91;5007132;28;20107;-69
2022/11/14 08:55:46;;;;;;;12.60;8.85;;;8.00;76.90;;;5.45;100.00;96014.59;5006841;28;20057;-69
2022/11/14 08:58:12;;;;;;;10.90;8.02;;;7.90;76.10;;;5.50;100.00;96022.75;5033490;28;20151;-66
2022/11/14 09:00:38;;;;;;;11.90;7.60;;;7.90;76.30;;;5.53;100.00;96023.25;5025898;28;20127;-67
2022/11/14 09:03:12;;;;;;;22.05;8.30;;;7.90;76.40;;;5.53;100.00;96031.06;4993923;28;20025;-68
2022/11/14 09:05:38;;;;;;;9.35;7.65;;;7.80;76.20;;;5.53;100.00;96028.47;5010977;28;20397;-68
2022/11/14 09:08:04;;;;;;;24.20;8.20;;;7.80;76.30;;;5.50;100.00;96012.31;5025069;28;20036;-68
2022/11/14 09:10:30;;;;;;;11.13;7.57;;;7.60;75.90;;;5.43;100.00;96000.88;5009724;28;20025;-67
2022/11/14 09:12:57;;;;;;;12.32;7.93;;;7.70;76.50;;;5.44;100.00;95990.31;4993327;28;20056;-69
2022/11/14 09:15:23;;;;;;;15.48;7.40;;;7.90;75.50;;;5.52;100.00;95990.31;5025998;28;20052;-68
2022/11/14 09:17:55;;;;;;;12.65;6.97;;;8.30;74.60;;;5.70;100.00;96000.63;5008776;28;20116;-68
2022/11/14 09:20:22;;;;;;;11.98;7.57;;;8.70;73.30;;;5.82;100.00;96006.31;5024597;28;20039;-68
2022/11/14 09:22:49;;;;;;;9.07;6.95;;;8.70;73.70;;;5.95;100.00;96005.91;5009685;28;20128;-68
2022/11/14 09:25:15;;;;;;;8.52;6.70;;;9.10;72.10;;;6.02;100.00;95999.84;4998913;28;20067;-67
2022/11/14 09:27:40;;;;;;;8.65;6.45;;;9.00;71.70;;;6.11;100.00;95995.44;5021927;28;20041;-67
2022/11/14 09:30:07;;;;;;;12.45;7.55;;;9.10;71.40;;;6.20;100.00;96001.47;5006431;28;20045;-67
2022/11/14 09:32:33;;;;;;;23.73;16.58;;;9.00;72.00;;;6.28;100.00;96001.47;5008647;28;20037;-68
2022/11/14 09:34:59;;;;;;;20.05;12.35;;;8.90;73.30;;;6.32;100.00;96008.00;5009604;28;20039;-69
2022/11/14 09:37:25;;;;;;;10.68;9.57;;;8.90;73.00;;;6.35;100.00;96012.91;4993496;28;20512;-67
2022/11/14 09:39:51;;;;;;;9.52;8.15;;;8.80;73.30;;;6.35;100.00;96020.75;4992844;28;20152;-68
2022/11/14 09:42:34;;;;;;;12.93;8.05;;;8.70;73.90;;;6.42;100.00;96024.31;4992926;28;20117;-67
2022/11/14 09:45:08;;;;;;;9.40;7.85;;;8.80;73.30;;;6.43;100.00;96039.03;5037280;28;20504;-68
2022/11/14 09:48:04;;;;;;;10.32;7.60;;;8.80;73.80;;;6.44;100.00;96038.84;4992090;28;20037;-67
2022/11/14 09:50:34;;;;;;;9.95;7.57;;;8.70;73.50;;;6.43;100.00;96025.97;5030156;28;20534;-68
2022/11/14 09:53:49;;;;;;;12.43;8.07;;;8.70;73.70;;;6.51;100.00;96018.09;5010502;28;20099;-68
2022/11/14 09:56:23;;;;;;;10.98;8.55;;;8.90;73.70;;;6.54;100.00;96028.22;5029201;28;20522;-67
2022/11/14 09:58:49;;;;;;;10.70;8.13;;;9.00;74.10;;;6.62;100.00;96045.69;5025507;28;20112;-68
2022/11/14 10:01:42;;;;;;;11.23;8.63;;;9.00;74.00;;;6.64;100.00;96041.13;5026137;28;20029;-67
2022/11/14 10:05:00;;;;;;;13.82;7.80;;;9.00;74.40;;;6.68;100.00;96034.56;5042769;28;20044;-68
2022/11/14 10:07:48;;;;;;;7.75;6.63;;;9.00;74.10;;;6.78;100.00;96042.22;5041871;28;20159;-66
2022/11/14 10:10:28;;;;;;;8.00;6.88;;;9.40;73.20;;;6.90;100.00;96035.66;5038230;28;20042;-68
2022/11/14 10:13:54;;;;;;;7.53;6.70;;;9.60;72.90;;;7.04;100.00;96024.53;5029390;28;20026;-68
2022/11/14 10:17:06;;;;;;;10.75;7.07;;;9.80;70.80;;;7.24;100.00;96025.75;4982719;28;20044;-67
2022/11/14 10:20:00;;;;;;;7.30;6.60;;;10.10;69.70;;;7.41;100.00;96013.41;5028621;28;20061;-67